sensor_id;sensor_type;location;lat;lon;timestamp;noise_LAeq;noise_LA_min;noise_LA_max;noise_LA01;noise_LA95
71034;Laerm;58847;52.378;4.740;2023-01-16T00:00:04;38.39;37.44;39.47;;
71034;Laerm;58847;52.378;4.740;2023-01-16T00:00:14;38.43;37.56;39.31;;
71034;Laerm;58847;52.378;4.740;2023-01-16T00:00:25;38.35;37.64;39.36;;
71034;Laerm;58847;52.378;4.740;2023-01-16T00:00:35;38.39;37.52;39.48;;
71034;Laerm;58847;52.378;4.740;2023-01-16T00:00:45;38.36;37.34;39.14;;
71034;Laerm;58847;52.378;4.740;2023-01-16T00:00:55;38.36;37.02;39.19;;
71034;Laerm;58847;52.378;4.740;2023-01-16T00:01:06;38.37;37.22;39.50;;
71034;Laerm;58847;52.378;4.740;2023-01-16T00:01:16;38.40;37.71;39.21;;
71034;Laerm;58847;52.378;4.740;2023-01-16T00:01:27;38.37;37.56;39.23;;
71034;Laerm;58847;52.378;4.740;2023-01-16T00:01:38;38.38;37.60;39.27;;
71034;Laerm;58847;52.378;4.740;2023-01-16T00:01:48;38.40;37.50;39.51;;
71034;Laerm;58847;52.378;4.740;2023-01-16T00:01:59;38.38;37.35;39.27;;
71034;Laerm;58847;52.378;4.740;2023-01-16T00:02:10;38.37;37.58;39.12;;
71034;Laerm;58847;52.378;4.740;2023-01-16T00:02:20;38.36;37.39;39.17;;
71034;Laerm;58847;52.378;4.740;2023-01-16T00:02:30;38.41;37.36;39.17;;
71034;Laerm;58847;52.378;4.740;2023-01-16T00:02:41;38.38;37.27;39.24;;
71034;Laerm;58847;52.378;4.740;2023-01-16T00:02:51;38.37;37.47;39.43;;
71034;Laerm;58847;52.378;4.740;2023-01-16T00:03:01;38.36;37.38;39.69;;
71034;Laerm;58847;52.378;4.740;2023-01-16T00:03:11;38.36;37.53;39.11;;
71034;Laerm;58847;52.378;4.740;2023-01-16T00:03:22;38.39;37.43;39.14;;
71034;Laerm;58847;52.378;4.740;2023-01-16T00:03:32;38.39;37.47;39.61;;
71034;Laerm;58847;52.378;4.740;2023-01-16T00:03:42;38.39;37.55;39.29;;
71034;Laerm;58847;52.378;4.740;2023-01-16T00:03:53;38.34;37.29;39.14;;
71034;Laerm;58847;52.378;4.740;2023-01-16T00:04:03;38.37;37.65;39.03;;
71034;Laerm;58847;52.378;4.740;2023-01-16T00:04:14;38.39;37.54;39.64;;
71034;Laerm;58847;52.378;4.740;2023-01-16T00:04:24;38.37;37.41;39.27;;
71034;Laerm;58847;52.378;4.740;2023-01-16T00:04:34;38.37;37.48;40.01;;
71034;Laerm;58847;52.378;4.740;2023-01-16T00:04:45;38.36;37.32;39.25;;
71034;Laerm;58847;52.378;4.740;2023-01-16T00:04:55;38.35;37.61;39.25;;
71034;Laerm;58847;52.378;4.740;2023-01-16T00:05:08;38.37;37.43;39.41;;
71034;Laerm;58847;52.378;4.740;2023-01-16T00:05:19;38.41;37.56;39.56;;
71034;Laerm;58847;52.378;4.740;2023-01-16T00:05:29;38.38;37.53;39.46;;
71034;Laerm;58847;52.378;4.740;2023-01-16T00:05:39;38.36;37.53;39.52;;
71034;Laerm;58847;52.378;4.740;2023-01-16T00:05:49;38.37;37.69;39.77;;
71034;Laerm;58847;52.378;4.740;2023-01-16T00:05:59;38.41;37.42;39.14;;
71034;Laerm;58847;52.378;4.740;2023-01-16T00:06:10;38.40;37.60;40.04;;
71034;Laerm;58847;52.378;4.740;2023-01-16T00:06:20;38.35;37.37;39.57;;
71034;Laerm;58847;52.378;4.740;2023-01-16T00:06:30;38.42;37.35;39.39;;
71034;Laerm;58847;52.378;4.740;2023-01-16T00:06:41;38.39;37.39;39.17;;
71034;Laerm;58847;52.378;4.740;2023-01-16T00:06:51;38.37;37.22;39.57;;
71034;Laerm;58847;52.378;4.740;2023-01-16T00:07:01;38.38;37.28;39.23;;
71034;Laerm;58847;52.378;4.740;2023-01-16T00:07:11;38.38;37.51;39.36;;
71034;Laerm;58847;52.378;4.740;2023-01-16T00:07:22;38.36;37.37;39.32;;
71034;Laerm;58847;52.378;4.740;2023-01-16T00:07:32;38.38;37.59;39.23;;
71034;Laerm;58847;52.378;4.740;2023-01-16T00:07:42;38.35;37.46;39.14;;
71034;Laerm;58847;52.378;4.740;2023-01-16T00:07:52;38.36;37.43;39.31;;
71034;Laerm;58847;52.378;4.740;2023-01-16T00:08:03;38.42;37.60;39.44;;
71034;Laerm;58847;52.378;4.740;2023-01-16T00:08:13;38.38;37.40;39.35;;
71034;Laerm;58847;52.378;4.740;2023-01-16T00:08:23;38.35;37.45;39.33;;
71034;Laerm;58847;52.378;4.740;2023-01-16T00:08:34;38.41;37.24;39.82;;
71034;Laerm;58847;52.378;4.740;2023-01-16T00:08:44;38.39;37.57;39.12;;
71034;Laerm;58847;52.378;4.740;2023-01-16T00:08:54;38.37;37.44;39.32;;
71034;Laerm;58847;52.378;4.740;2023-01-16T00:09:04;38.33;37.46;39.39;;
71034;Laerm;58847;52.378;4.740;2023-01-16T00:09:15;38.36;37.53;39.28;;
71034;Laerm;58847;52.378;4.740;2023-01-16T00:09:25;38.39;37.45;39.54;;
71034;Laerm;58847;52.378;4.740;2023-01-16T00:09:35;38.33;37.19;39.66;;
71034;Laerm;58847;52.378;4.740;2023-01-16T00:09:45;38.34;37.51;39.18;;
71034;Laerm;58847;52.378;4.740;2023-01-16T00:09:55;38.33;37.47;39.88;;
71034;Laerm;58847;52.378;4.740;2023-01-16T00:10:06;38.35;37.55;39.52;;
71034;Laerm;58847;52.378;4.740;2023-01-16T00:10:17;38.35;37.57;39.16;;
71034;Laerm;58847;52.378;4.740;2023-01-16T00:10:27;38.38;37.44;39.21;;
71034;Laerm;58847;52.378;4.740;2023-01-16T00:10:38;38.36;37.08;39.38;;
71034;Laerm;58847;52.378;4.740;2023-01-16T00:10:48;38.37;37.28;39.66;;
71034;Laerm;58847;52.378;4.740;2023-01-16T00:10:59;38.36;37.32;39.16;;
71034;Laerm;58847;52.378;4.740;2023-01-16T00:11:10;38.38;37.61;39.31;;
71034;Laerm;58847;52.378;4.740;2023-01-16T00:11:20;38.35;37.46;39.99;;
71034;Laerm;58847;52.378;4.740;2023-01-16T00:11:30;38.35;37.35;39.90;;
71034;Laerm;58847;52.378;4.740;2023-01-16T00:11:40;38.32;37.35;39.30;;
71034;Laerm;58847;52.378;4.740;2023-01-16T00:11:51;38.36;37.41;39.24;;
71034;Laerm;58847;52.378;4.740;2023-01-16T00:12:01;38.37;37.38;39.33;;
71034;Laerm;58847;52.378;4.740;2023-01-16T00:12:11;38.36;37.60;39.34;;
71034;Laerm;58847;52.378;4.740;2023-01-16T00:12:22;38.34;37.29;39.13;;
71034;Laerm;58847;52.378;4.740;2023-01-16T00:12:32;38.34;37.51;39.17;;
71034;Laerm;58847;52.378;4.740;2023-01-16T00:12:42;38.32;37.34;39.28;;
71034;Laerm;58847;52.378;4.740;2023-01-16T00:12:53;38.33;37.44;39.16;;
71034;Laerm;58847;52.378;4.740;2023-01-16T00:13:03;38.39;37.70;39.31;;
71034;Laerm;58847;52.378;4.740;2023-01-16T00:13:13;38.35;37.54;39.25;;
71034;Laerm;58847;52.378;4.740;2023-01-16T00:13:24;38.34;37.55;39.20;;
71034;Laerm;58847;52.378;4.740;2023-01-16T00:13:34;38.35;37.43;39.68;;
71034;Laerm;58847;52.378;4.740;2023-01-16T00:13:44;38.33;37.47;39.18;;
71034;Laerm;58847;52.378;4.740;2023-01-16T00:13:55;38.36;37.44;39.19;;
71034;Laerm;58847;52.378;4.740;2023-01-16T00:14:06;38.36;37.41;39.43;;
71034;Laerm;58847;52.378;4.740;2023-01-16T00:14:16;38.41;37.41;39.24;;
71034;Laerm;58847;52.378;4.740;2023-01-16T00:14:28;38.36;37.37;39.13;;
71034;Laerm;58847;52.378;4.740;2023-01-16T00:14:38;38.36;37.35;39.37;;
71034;Laerm;58847;52.378;4.740;2023-01-16T00:14:48;38.36;37.32;39.14;;
71034;Laerm;58847;52.378;4.740;2023-01-16T00:14:59;38.35;37.42;39.28;;
71034;Laerm;58847;52.378;4.740;2023-01-16T00:15:09;38.36;37.50;39.31;;
71034;Laerm;58847;52.378;4.740;2023-01-16T00:15:19;38.37;37.48;39.20;;
71034;Laerm;58847;52.378;4.740;2023-01-16T00:15:29;38.38;37.50;39.16;;
71034;Laerm;58847;52.378;4.740;2023-01-16T00:15:43;38.36;37.61;39.36;;
71034;Laerm;58847;52.378;4.740;2023-01-16T00:15:53;38.37;37.46;39.43;;
71034;Laerm;58847;52.378;4.740;2023-01-16T00:16:04;38.36;37.63;39.62;;
71034;Laerm;58847;52.378;4.740;2023-01-16T00:16:14;38.41;37.52;39.39;;
71034;Laerm;58847;52.378;4.740;2023-01-16T00:16:25;38.37;37.40;39.28;;
71034;Laerm;58847;52.378;4.740;2023-01-16T00:16:35;38.35;37.45;39.25;;
71034;Laerm;58847;52.378;4.740;2023-01-16T00:16:46;38.37;37.53;39.10;;
71034;Laerm;58847;52.378;4.740;2023-01-16T00:16:56;38.39;37.46;39.36;;
71034;Laerm;58847;52.378;4.740;2023-01-16T00:17:07;38.36;37.30;39.37;;
71034;Laerm;58847;52.378;4.740;2023-01-16T00:17:17;38.38;37.48;39.39;;
71034;Laerm;58847;52.378;4.740;2023-01-16T00:17:27;38.39;37.49;39.37;;
71034;Laerm;58847;52.378;4.740;2023-01-16T00:17:37;38.39;37.34;39.18;;
71034;Laerm;58847;52.378;4.740;2023-01-16T00:17:47;38.38;37.57;39.18;;
71034;Laerm;58847;52.378;4.740;2023-01-16T00:17:59;38.39;37.43;39.19;;
71034;Laerm;58847;52.378;4.740;2023-01-16T00:18:09;38.39;37.54;39.25;;
71034;Laerm;58847;52.378;4.740;2023-01-16T00:18:20;38.39;37.61;39.34;;
71034;Laerm;58847;52.378;4.740;2023-01-16T00:18:30;38.41;37.44;39.33;;
71034;Laerm;58847;52.378;4.740;2023-01-16T00:18:40;38.41;37.47;39.37;;
71034;Laerm;58847;52.378;4.740;2023-01-16T00:18:51;38.41;37.49;39.57;;
71034;Laerm;58847;52.378;4.740;2023-01-16T00:19:02;38.43;37.60;39.56;;
71034;Laerm;58847;52.378;4.740;2023-01-16T00:19:12;38.41;37.50;39.99;;
71034;Laerm;58847;52.378;4.740;2023-01-16T00:19:22;38.41;37.62;39.54;;
71034;Laerm;58847;52.378;4.740;2023-01-16T00:19:33;38.44;37.50;39.21;;
71034;Laerm;58847;52.378;4.740;2023-01-16T00:19:43;38.40;37.44;39.53;;
71034;Laerm;58847;52.378;4.740;2023-01-16T00:19:53;38.40;37.52;40.48;;
71034;Laerm;58847;52.378;4.740;2023-01-16T00:20:03;38.36;37.16;39.27;;
71034;Laerm;58847;52.378;4.740;2023-01-16T00:20:14;38.38;37.47;39.09;;
71034;Laerm;58847;52.378;4.740;2023-01-16T00:20:24;38.38;37.64;39.37;;
71034;Laerm;58847;52.378;4.740;2023-01-16T00:20:34;38.44;37.50;39.49;;
71034;Laerm;58847;52.378;4.740;2023-01-16T00:20:45;38.45;37.49;39.25;;
71034;Laerm;58847;52.378;4.740;2023-01-16T00:20:56;38.44;37.66;39.36;;
71034;Laerm;58847;52.378;4.740;2023-01-16T00:21:06;38.41;37.44;39.21;;
71034;Laerm;58847;52.378;4.740;2023-01-16T00:21:16;38.43;37.49;39.63;;
71034;Laerm;58847;52.378;4.740;2023-01-16T00:21:27;38.43;37.46;39.63;;
71034;Laerm;58847;52.378;4.740;2023-01-16T00:21:37;38.44;37.36;39.34;;
71034;Laerm;58847;52.378;4.740;2023-01-16T00:21:47;38.44;37.77;39.87;;
71034;Laerm;58847;52.378;4.740;2023-01-16T00:21:58;38.44;37.61;39.42;;
71034;Laerm;58847;52.378;4.740;2023-01-16T00:22:08;38.40;37.39;39.31;;
71034;Laerm;58847;52.378;4.740;2023-01-16T00:22:18;38.42;37.51;39.44;;
71034;Laerm;58847;52.378;4.740;2023-01-16T00:22:28;38.42;37.52;39.33;;
71034;Laerm;58847;52.378;4.740;2023-01-16T00:22:39;38.41;37.64;39.50;;
71034;Laerm;58847;52.378;4.740;2023-01-16T00:22:49;38.44;37.44;40.21;;
71034;Laerm;58847;52.378;4.740;2023-01-16T00:22:59;38.45;37.56;39.14;;
71034;Laerm;58847;52.378;4.740;2023-01-16T00:23:10;38.43;37.32;39.52;;
71034;Laerm;58847;52.378;4.740;2023-01-16T00:23:20;38.44;37.59;39.80;;
71034;Laerm;58847;52.378;4.740;2023-01-16T00:23:31;38.41;37.49;39.42;;
71034;Laerm;58847;52.378;4.740;2023-01-16T00:23:41;38.44;37.48;39.24;;
71034;Laerm;58847;52.378;4.740;2023-01-16T00:23:55;38.47;37.24;39.46;;
71034;Laerm;58847;52.378;4.740;2023-01-16T00:24:05;38.45;37.49;39.56;;
71034;Laerm;58847;52.378;4.740;2023-01-16T00:24:16;38.47;37.35;39.71;;
71034;Laerm;58847;52.378;4.740;2023-01-16T00:24:26;38.42;37.61;39.42;;
71034;Laerm;58847;52.378;4.740;2023-01-16T00:24:37;38.44;37.57;39.35;;
71034;Laerm;58847;52.378;4.740;2023-01-16T00:24:47;38.43;37.55;39.36;;
71034;Laerm;58847;52.378;4.740;2023-01-16T00:24:57;38.42;37.48;39.32;;
71034;Laerm;58847;52.378;4.740;2023-01-16T00:25:07;38.40;37.61;39.28;;
71034;Laerm;58847;52.378;4.740;2023-01-16T00:25:18;38.41;37.41;39.47;;
71034;Laerm;58847;52.378;4.740;2023-01-16T00:25:28;38.41;37.48;39.19;;
71034;Laerm;58847;52.378;4.740;2023-01-16T00:25:39;38.43;37.37;39.63;;
71034;Laerm;58847;52.378;4.740;2023-01-16T00:25:54;38.42;37.50;39.41;;
71034;Laerm;58847;52.378;4.740;2023-01-16T00:26:05;38.45;37.45;39.43;;
71034;Laerm;58847;52.378;4.740;2023-01-16T00:26:15;38.42;37.27;39.25;;
71034;Laerm;58847;52.378;4.740;2023-01-16T00:26:26;38.44;37.44;39.93;;
71034;Laerm;58847;52.378;4.740;2023-01-16T00:26:37;38.58;37.59;44.44;;
71034;Laerm;58847;52.378;4.740;2023-01-16T00:26:49;38.42;37.42;39.54;;
71034;Laerm;58847;52.378;4.740;2023-01-16T00:27:00;38.42;37.49;39.31;;
71034;Laerm;58847;52.378;4.740;2023-01-16T00:27:10;38.43;37.62;39.45;;
71034;Laerm;58847;52.378;4.740;2023-01-16T00:27:20;38.45;37.49;39.56;;
71034;Laerm;58847;52.378;4.740;2023-01-16T00:27:30;38.44;37.28;39.41;;
71034;Laerm;58847;52.378;4.740;2023-01-16T00:27:41;38.47;37.56;39.47;;
71034;Laerm;58847;52.378;4.740;2023-01-16T00:27:52;38.43;37.54;39.38;;
71034;Laerm;58847;52.378;4.740;2023-01-16T00:28:02;38.46;37.57;39.27;;
71034;Laerm;58847;52.378;4.740;2023-01-16T00:28:15;38.45;37.64;39.31;;
71034;Laerm;58847;52.378;4.740;2023-01-16T00:28:26;38.44;37.17;39.40;;
71034;Laerm;58847;52.378;4.740;2023-01-16T00:28:36;38.43;37.46;39.57;;
71034;Laerm;58847;52.378;4.740;2023-01-16T00:28:49;38.45;37.51;39.59;;
71034;Laerm;58847;52.378;4.740;2023-01-16T00:28:59;38.45;37.51;39.17;;
71034;Laerm;58847;52.378;4.740;2023-01-16T00:29:12;38.46;37.72;39.54;;
71034;Laerm;58847;52.378;4.740;2023-01-16T00:29:22;38.45;37.67;39.30;;
71034;Laerm;58847;52.378;4.740;2023-01-16T00:29:32;38.46;37.54;39.40;;
71034;Laerm;58847;52.378;4.740;2023-01-16T00:29:43;38.45;37.59;39.57;;
71034;Laerm;58847;52.378;4.740;2023-01-16T00:29:53;38.44;37.45;39.45;;
71034;Laerm;58847;52.378;4.740;2023-01-16T00:30:03;38.45;37.56;39.25;;
71034;Laerm;58847;52.378;4.740;2023-01-16T00:30:14;38.44;37.71;39.16;;
71034;Laerm;58847;52.378;4.740;2023-01-16T00:30:24;38.47;37.52;39.37;;
71034;Laerm;58847;52.378;4.740;2023-01-16T00:30:34;38.51;37.54;39.36;;
71034;Laerm;58847;52.378;4.740;2023-01-16T00:30:45;38.45;37.29;40.21;;
71034;Laerm;58847;52.378;4.740;2023-01-16T00:30:55;38.46;37.66;39.52;;
71034;Laerm;58847;52.378;4.740;2023-01-16T00:31:06;38.46;37.78;39.36;;
71034;Laerm;58847;52.378;4.740;2023-01-16T00:31:16;38.45;37.49;39.52;;
71034;Laerm;58847;52.378;4.740;2023-01-16T00:31:26;38.47;37.66;39.29;;
71034;Laerm;58847;52.378;4.740;2023-01-16T00:31:37;38.45;37.42;39.37;;
71034;Laerm;58847;52.378;4.740;2023-01-16T00:31:47;38.43;37.66;39.90;;
71034;Laerm;58847;52.378;4.740;2023-01-16T00:31:57;38.44;37.48;39.67;;
71034;Laerm;58847;52.378;4.740;2023-01-16T00:32:07;38.43;37.58;39.31;;
71034;Laerm;58847;52.378;4.740;2023-01-16T00:32:20;38.46;37.28;39.94;;
71034;Laerm;58847;52.378;4.740;2023-01-16T00:32:30;38.48;37.75;39.59;;
71034;Laerm;58847;52.378;4.740;2023-01-16T00:32:40;38.46;37.53;39.59;;
71034;Laerm;58847;52.378;4.740;2023-01-16T00:32:51;38.45;37.54;39.29;;
71034;Laerm;58847;52.378;4.740;2023-01-16T00:33:01;38.46;37.45;39.44;;
71034;Laerm;58847;52.378;4.740;2023-01-16T00:33:11;38.47;37.50;39.26;;
71034;Laerm;58847;52.378;4.740;2023-01-16T00:33:21;38.43;37.48;39.33;;
71034;Laerm;58847;52.378;4.740;2023-01-16T00:33:32;38.45;37.42;40.16;;
71034;Laerm;58847;52.378;4.740;2023-01-16T00:33:43;38.48;37.55;39.68;;
71034;Laerm;58847;52.378;4.740;2023-01-16T00:33:53;38.48;37.53;39.93;;
71034;Laerm;58847;52.378;4.740;2023-01-16T00:34:03;38.48;37.60;39.30;;
71034;Laerm;58847;52.378;4.740;2023-01-16T00:34:14;38.44;37.49;39.40;;
71034;Laerm;58847;52.378;4.740;2023-01-16T00:34:27;38.52;37.61;41.87;;
71034;Laerm;58847;52.378;4.740;2023-01-16T00:34:37;38.49;37.52;39.32;;
71034;Laerm;58847;52.378;4.740;2023-01-16T00:34:47;38.45;37.51;39.27;;
71034;Laerm;58847;52.378;4.740;2023-01-16T00:34:58;38.48;37.59;39.33;;
71034;Laerm;58847;52.378;4.740;2023-01-16T00:35:08;38.47;37.72;39.52;;
71034;Laerm;58847;52.378;4.740;2023-01-16T00:35:18;38.47;37.65;39.42;;
71034;Laerm;58847;52.378;4.740;2023-01-16T00:35:28;38.48;37.42;39.61;;
71034;Laerm;58847;52.378;4.740;2023-01-16T00:35:39;38.41;37.53;39.26;;
71034;Laerm;58847;52.378;4.740;2023-01-16T00:35:50;38.42;37.10;39.27;;
71034;Laerm;58847;52.378;4.740;2023-01-16T00:36:01;38.48;37.49;39.19;;
71034;Laerm;58847;52.378;4.740;2023-01-16T00:36:12;38.45;37.62;39.26;;
71034;Laerm;58847;52.378;4.740;2023-01-16T00:36:22;38.45;37.48;39.38;;
71034;Laerm;58847;52.378;4.740;2023-01-16T00:36:32;38.44;37.53;39.29;;
71034;Laerm;58847;52.378;4.740;2023-01-16T00:36:43;38.52;37.32;39.44;;
71034;Laerm;58847;52.378;4.740;2023-01-16T00:36:53;38.46;37.56;39.52;;
71034;Laerm;58847;52.378;4.740;2023-01-16T00:37:03;38.50;37.47;39.42;;
71034;Laerm;58847;52.378;4.740;2023-01-16T00:37:13;38.47;37.52;39.56;;
71034;Laerm;58847;52.378;4.740;2023-01-16T00:37:24;38.47;37.47;39.40;;
71034;Laerm;58847;52.378;4.740;2023-01-16T00:37:34;38.46;37.60;39.43;;
71034;Laerm;58847;52.378;4.740;2023-01-16T00:37:44;38.43;37.65;39.25;;
71034;Laerm;58847;52.378;4.740;2023-01-16T00:37:54;38.43;37.61;39.71;;
71034;Laerm;58847;52.378;4.740;2023-01-16T00:38:04;38.45;37.44;39.32;;
71034;Laerm;58847;52.378;4.740;2023-01-16T00:38:15;38.50;37.68;39.66;;
71034;Laerm;58847;52.378;4.740;2023-01-16T00:38:25;38.46;37.60;39.57;;
71034;Laerm;58847;52.378;4.740;2023-01-16T00:38:35;38.44;37.44;39.35;;
71034;Laerm;58847;52.378;4.740;2023-01-16T00:38:46;38.48;37.44;39.34;;
71034;Laerm;58847;52.378;4.740;2023-01-16T00:38:56;38.48;37.70;39.32;;
71034;Laerm;58847;52.378;4.740;2023-01-16T00:39:06;38.40;37.32;39.42;;
71034;Laerm;58847;52.378;4.740;2023-01-16T00:39:17;38.47;37.64;39.75;;
71034;Laerm;58847;52.378;4.740;2023-01-16T00:39:27;38.49;37.61;39.46;;
71034;Laerm;58847;52.378;4.740;2023-01-16T00:39:37;38.44;37.48;39.61;;
71034;Laerm;58847;52.378;4.740;2023-01-16T00:39:49;38.46;37.55;39.32;;
71034;Laerm;58847;52.378;4.740;2023-01-16T00:40:01;38.47;37.70;39.70;;
71034;Laerm;58847;52.378;4.740;2023-01-16T00:40:12;38.48;37.68;39.37;;
71034;Laerm;58847;52.378;4.740;2023-01-16T00:40:23;38.47;37.41;39.82;;
71034;Laerm;58847;52.378;4.740;2023-01-16T00:40:33;38.44;37.42;39.30;;
71034;Laerm;58847;52.378;4.740;2023-01-16T00:40:43;38.44;37.71;39.31;;
71034;Laerm;58847;52.378;4.740;2023-01-16T00:40:53;38.44;37.50;39.49;;
71034;Laerm;58847;52.378;4.740;2023-01-16T00:41:04;38.48;37.59;39.45;;
71034;Laerm;58847;52.378;4.740;2023-01-16T00:41:14;38.45;37.69;39.28;;
71034;Laerm;58847;52.378;4.740;2023-01-16T00:41:25;38.44;37.66;39.34;;
71034;Laerm;58847;52.378;4.740;2023-01-16T00:41:35;38.49;37.69;39.41;;
71034;Laerm;58847;52.378;4.740;2023-01-16T00:41:45;38.48;37.52;39.41;;
71034;Laerm;58847;52.378;4.740;2023-01-16T00:41:55;38.49;37.54;39.49;;
71034;Laerm;58847;52.378;4.740;2023-01-16T00:42:06;38.49;37.43;39.70;;
71034;Laerm;58847;52.378;4.740;2023-01-16T00:42:17;38.48;37.67;39.37;;
71034;Laerm;58847;52.378;4.740;2023-01-16T00:42:27;38.51;37.61;39.56;;
71034;Laerm;58847;52.378;4.740;2023-01-16T00:42:37;38.49;37.54;39.62;;
71034;Laerm;58847;52.378;4.740;2023-01-16T00:42:48;38.47;37.54;39.30;;
71034;Laerm;58847;52.378;4.740;2023-01-16T00:42:58;38.45;37.55;39.38;;
71034;Laerm;58847;52.378;4.740;2023-01-16T00:43:08;38.46;37.61;39.56;;
71034;Laerm;58847;52.378;4.740;2023-01-16T00:43:18;38.48;37.76;39.51;;
71034;Laerm;58847;52.378;4.740;2023-01-16T00:43:28;38.47;37.45;39.38;;
71034;Laerm;58847;52.378;4.740;2023-01-16T00:43:39;38.41;37.63;39.38;;
71034;Laerm;58847;52.378;4.740;2023-01-16T00:43:49;38.47;37.62;39.43;;
71034;Laerm;58847;52.378;4.740;2023-01-16T00:44:00;38.43;37.66;39.21;;
71034;Laerm;58847;52.378;4.740;2023-01-16T00:44:10;38.43;37.73;39.47;;
71034;Laerm;58847;52.378;4.740;2023-01-16T00:44:20;38.47;37.67;39.41;;
71034;Laerm;58847;52.378;4.740;2023-01-16T00:44:31;38.49;37.59;39.31;;
71034;Laerm;58847;52.378;4.740;2023-01-16T00:44:41;38.46;37.41;39.38;;
71034;Laerm;58847;52.378;4.740;2023-01-16T00:44:51;38.49;37.56;39.63;;
71034;Laerm;58847;52.378;4.740;2023-01-16T00:45:01;38.48;37.45;39.35;;
71034;Laerm;58847;52.378;4.740;2023-01-16T00:45:12;38.49;37.52;39.39;;
71034;Laerm;58847;52.378;4.740;2023-01-16T00:45:23;38.46;37.46;39.68;;
71034;Laerm;58847;52.378;4.740;2023-01-16T00:45:34;38.46;37.55;40.02;;
71034;Laerm;58847;52.378;4.740;2023-01-16T00:45:44;38.41;37.28;39.17;;
71034;Laerm;58847;52.378;4.740;2023-01-16T00:45:55;38.43;37.76;39.24;;
71034;Laerm;58847;52.378;4.740;2023-01-16T00:46:06;38.42;37.54;39.61;;
71034;Laerm;58847;52.378;4.740;2023-01-16T00:46:16;38.48;37.58;39.57;;
71034;Laerm;58847;52.378;4.740;2023-01-16T00:46:26;38.45;37.26;39.17;;
71034;Laerm;58847;52.378;4.740;2023-01-16T00:46:39;38.47;37.61;39.35;;
71034;Laerm;58847;52.378;4.740;2023-01-16T00:46:50;38.47;37.59;39.31;;
71034;Laerm;58847;52.378;4.740;2023-01-16T00:47:00;38.44;37.59;39.50;;
71034;Laerm;58847;52.378;4.740;2023-01-16T00:47:11;38.48;37.49;39.34;;
71034;Laerm;58847;52.378;4.740;2023-01-16T00:47:21;38.47;37.67;39.21;;
71034;Laerm;58847;52.378;4.740;2023-01-16T00:47:31;38.46;37.26;40.20;;
71034;Laerm;58847;52.378;4.740;2023-01-16T00:47:41;38.48;37.69;39.74;;
71034;Laerm;58847;52.378;4.740;2023-01-16T00:47:52;38.48;37.52;39.34;;
71034;Laerm;58847;52.378;4.740;2023-01-16T00:48:02;38.46;37.59;39.49;;
71034;Laerm;58847;52.378;4.740;2023-01-16T00:48:13;38.42;37.16;39.25;;
71034;Laerm;58847;52.378;4.740;2023-01-16T00:48:23;38.45;37.52;39.21;;
71034;Laerm;58847;52.378;4.740;2023-01-16T00:48:34;38.45;37.25;39.34;;
71034;Laerm;58847;52.378;4.740;2023-01-16T00:48:44;38.45;37.54;39.17;;
71034;Laerm;58847;52.378;4.740;2023-01-16T00:48:54;38.40;37.43;39.17;;
71034;Laerm;58847;52.378;4.740;2023-01-16T00:49:05;38.47;37.63;39.33;;
71034;Laerm;58847;52.378;4.740;2023-01-16T00:49:15;38.46;37.58;39.36;;
71034;Laerm;58847;52.378;4.740;2023-01-16T00:49:25;38.45;37.43;39.62;;
71034;Laerm;58847;52.378;4.740;2023-01-16T00:49:35;38.42;37.59;39.44;;
71034;Laerm;58847;52.378;4.740;2023-01-16T00:49:46;38.41;37.48;39.83;;
71034;Laerm;58847;52.378;4.740;2023-01-16T00:49:56;38.44;37.65;39.40;;
71034;Laerm;58847;52.378;4.740;2023-01-16T00:50:07;38.41;37.48;39.35;;
71034;Laerm;58847;52.378;4.740;2023-01-16T00:50:17;38.45;37.52;39.60;;
71034;Laerm;58847;52.378;4.740;2023-01-16T00:50:27;38.39;37.55;39.23;;
71034;Laerm;58847;52.378;4.740;2023-01-16T00:50:38;38.43;37.59;39.44;;
71034;Laerm;58847;52.378;4.740;2023-01-16T00:50:48;38.43;37.15;39.29;;
71034;Laerm;58847;52.378;4.740;2023-01-16T00:50:58;38.41;37.61;39.27;;
71034;Laerm;58847;52.378;4.740;2023-01-16T00:51:09;38.39;37.56;39.45;;
71034;Laerm;58847;52.378;4.740;2023-01-16T00:51:19;38.41;37.09;39.33;;
71034;Laerm;58847;52.378;4.740;2023-01-16T00:51:29;38.42;37.46;39.23;;
71034;Laerm;58847;52.378;4.740;2023-01-16T00:51:39;38.44;37.65;39.35;;
71034;Laerm;58847;52.378;4.740;2023-01-16T00:51:49;38.47;37.59;39.40;;
71034;Laerm;58847;52.378;4.740;2023-01-16T00:52:00;38.40;37.64;39.15;;
71034;Laerm;58847;52.378;4.740;2023-01-16T00:52:10;38.44;37.59;40.34;;
71034;Laerm;58847;52.378;4.740;2023-01-16T00:52:20;38.46;37.57;39.62;;
71034;Laerm;58847;52.378;4.740;2023-01-16T00:52:30;38.43;37.56;39.32;;
71034;Laerm;58847;52.378;4.740;2023-01-16T00:52:41;38.43;37.50;39.81;;
71034;Laerm;58847;52.378;4.740;2023-01-16T00:52:51;38.46;37.42;39.34;;
71034;Laerm;58847;52.378;4.740;2023-01-16T00:53:01;38.44;37.56;39.38;;
71034;Laerm;58847;52.378;4.740;2023-01-16T00:53:11;38.42;37.53;39.28;;
71034;Laerm;58847;52.378;4.740;2023-01-16T00:53:22;38.41;37.45;39.48;;
71034;Laerm;58847;52.378;4.740;2023-01-16T00:53:32;38.46;37.57;39.35;;
71034;Laerm;58847;52.378;4.740;2023-01-16T00:53:42;38.43;37.29;39.38;;
71034;Laerm;58847;52.378;4.740;2023-01-16T00:53:52;38.45;37.63;39.58;;
71034;Laerm;58847;52.378;4.740;2023-01-16T00:54:03;38.48;37.51;40.05;;
71034;Laerm;58847;52.378;4.740;2023-01-16T00:54:13;38.46;37.37;39.75;;
71034;Laerm;58847;52.378;4.740;2023-01-16T00:54:23;38.43;37.45;39.52;;
71034;Laerm;58847;52.378;4.740;2023-01-16T00:54:33;38.43;37.43;39.20;;
71034;Laerm;58847;52.378;4.740;2023-01-16T00:54:44;38.47;37.24;39.26;;
71034;Laerm;58847;52.378;4.740;2023-01-16T00:54:54;38.44;37.11;39.22;;
71034;Laerm;58847;52.378;4.740;2023-01-16T00:55:04;38.46;37.64;39.31;;
71034;Laerm;58847;52.378;4.740;2023-01-16T00:55:15;38.44;37.54;39.54;;
71034;Laerm;58847;52.378;4.740;2023-01-16T00:55:25;38.45;37.26;39.35;;
71034;Laerm;58847;52.378;4.740;2023-01-16T00:55:35;38.45;37.33;39.66;;
71034;Laerm;58847;52.378;4.740;2023-01-16T00:55:46;38.43;37.49;39.29;;
71034;Laerm;58847;52.378;4.740;2023-01-16T00:55:56;38.42;37.43;39.27;;
71034;Laerm;58847;52.378;4.740;2023-01-16T00:56:07;38.43;37.60;39.32;;
71034;Laerm;58847;52.378;4.740;2023-01-16T00:56:17;38.41;37.24;39.73;;
71034;Laerm;58847;52.378;4.740;2023-01-16T00:56:27;38.42;37.28;39.23;;
71034;Laerm;58847;52.378;4.740;2023-01-16T00:56:38;38.41;37.57;39.52;;
71034;Laerm;58847;52.378;4.740;2023-01-16T00:56:48;38.43;37.61;39.97;;
71034;Laerm;58847;52.378;4.740;2023-01-16T00:56:58;38.42;37.47;39.45;;
71034;Laerm;58847;52.378;4.740;2023-01-16T00:57:08;38.42;37.54;39.35;;
71034;Laerm;58847;52.378;4.740;2023-01-16T00:57:19;38.45;37.64;39.48;;
71034;Laerm;58847;52.378;4.740;2023-01-16T00:57:29;38.45;37.55;39.33;;
71034;Laerm;58847;52.378;4.740;2023-01-16T00:57:39;38.44;37.47;39.47;;
71034;Laerm;58847;52.378;4.740;2023-01-16T00:57:50;38.46;37.70;39.32;;
71034;Laerm;58847;52.378;4.740;2023-01-16T00:58:00;38.48;37.24;39.72;;
71034;Laerm;58847;52.378;4.740;2023-01-16T00:58:10;38.47;37.65;39.33;;
71034;Laerm;58847;52.378;4.740;2023-01-16T00:58:21;38.47;37.32;39.85;;
71034;Laerm;58847;52.378;4.740;2023-01-16T00:58:31;38.46;37.67;39.30;;